Time;durP1;ratioP1;P1;durP2;ratioP2;P2;SDS_P1;SDS_P2;PMS_P1;PMS_P2;Temp;Humidity;BMP_temperature;BMP_pressure;BME280_temperature;BME280_humidity;BME280_pressure;Samples;Min_cycle;Max_cycle;Signal;HPM_P1;HPM_P2
2023/05/27 00:00:03;;;;;;;7.50;2.55;;;;;;;;;;6281982;22;20102;-84
2023/05/27 00:02:29;;;;;;;9.57;2.42;;;;;;;;;;6308073;22;20111;-84
2023/05/27 00:04:56;;;;;;;9.60;2.50;;;;;;;;;;6283330;22;20021;-84
2023/05/27 00:07:22;;;;;;;9.52;2.35;;;;;;;;;;6281672;22;20015;-84
2023/05/27 00:09:48;;;;;;;9.85;2.88;;;;;;;;;;6282106;22;20496;-84
2023/05/27 00:12:14;;;;;;;7.35;2.25;;;;;;;;;;6307886;22;20015;-84
2023/05/27 00:14:41;;;;;;;6.75;2.17;;;;;;;;;;6307664;22;20397;-84
2023/05/27 00:17:09;;;;;;;8.77;2.80;;;;;;;;;;6281987;22;20072;-85
2023/05/27 00:19:35;;;;;;;12.88;2.80;;;;;;;;;;6307828;22;20060;-84
2023/05/27 00:22:01;;;;;;;8.93;2.75;;;;;;;;;;6281648;22;20019;-84
2023/05/27 00:24:27;;;;;;;8.35;2.10;;;;;;;;;;6307728;22;20023;-84
2023/05/27 00:26:53;;;;;;;11.27;2.78;;;;;;;;;;6281963;22;20047;-84
2023/05/27 00:29:19;;;;;;;9.68;2.72;;;;;;;;;;6307776;22;20080;-84
2023/05/27 00:31:45;;;;;;;8.52;2.03;;;;;;;;;;6281900;22;20084;-84
2023/05/27 00:34:12;;;;;;;8.50;2.10;;;;;;;;;;6308043;22;20319;-84
2023/05/27 00:36:38;;;;;;;10.02;2.17;;;;;;;;;;6307485;22;20022;-84
2023/05/27 00:39:05;;;;;;;9.75;2.20;;;;;;;;;;6307617;22;20015;-84
2023/05/27 00:41:31;;;;;;;7.70;2.30;;;;;;;;;;6281942;22;20038;-84
2023/05/27 00:43:57;;;;;;;12.82;2.45;;;;;;;;;;6308594;22;20058;-85
2023/05/27 00:46:24;;;;;;;8.70;2.10;;;;;;;;;;6282708;22;20015;-85
2023/05/27 00:48:50;;;;;;;9.82;2.40;;;;;;;;;;6307468;22;20049;-85
2023/05/27 00:51:16;;;;;;;5.10;1.88;;;;;;;;;;6307440;22;20484;-84
2023/05/27 00:53:44;;;;;;;9.77;2.72;;;;;;;;;;6307528;22;20034;-85
2023/05/27 00:56:10;;;;;;;9.73;2.92;;;;;;;;;;6281875;22;20015;-85
2023/05/27 00:58:37;;;;;;;8.38;1.98;;;;;;;;;;6281509;22;20026;-85
2023/05/27 01:01:04;;;;;;;10.13;2.70;;;;;;;;;;6307443;22;20012;-85
2023/05/27 01:03:34;;;;;;;7.03;2.60;;;;;;;;;;6281563;22;20015;-85
2023/05/27 01:06:12;;;;;;;6.93;2.22;;;;;;;;;;6307675;22;20011;-85
2023/05/27 01:08:45;;;;;;;6.35;1.92;;;;;;;;;;6307954;22;20019;-85
2023/05/27 01:11:12;;;;;;;7.47;2.05;;;;;;;;;;6282510;22;20151;-85
2023/05/27 01:13:46;;;;;;;8.10;2.45;;;;;;;;;;6281127;22;20046;-84
2023/05/27 01:16:13;;;;;;;9.93;3.10;;;;;;;;;;6308228;22;20015;-85
2023/05/27 01:18:44;;;;;;;12.95;3.40;;;;;;;;;;6307395;22;20015;-85
2023/05/27 01:21:16;;;;;;;8.18;3.25;;;;;;;;;;6282360;22;20369;-85
2023/05/27 01:23:43;;;;;;;10.38;2.78;;;;;;;;;;6281754;22;20019;-85
2023/05/27 01:26:09;;;;;;;10.48;3.33;;;;;;;;;;6307394;22;20464;-85
2023/05/27 01:28:36;;;;;;;9.02;2.70;;;;;;;;;;6307052;22;20015;-85
2023/05/27 01:31:06;;;;;;;8.20;2.83;;;;;;;;;;6282175;22;20015;-85
2023/05/27 01:33:36;;;;;;;6.90;2.15;;;;;;;;;;6308038;22;20034;-85
2023/05/27 01:36:05;;;;;;;7.28;2.97;;;;;;;;;;6307841;22;20102;-84
2023/05/27 01:38:33;;;;;;;10.18;2.78;;;;;;;;;;6307171;22;20015;-84
2023/05/27 01:40:59;;;;;;;10.45;2.78;;;;;;;;;;6280724;22;20015;-85
2023/05/27 01:43:26;;;;;;;10.57;2.95;;;;;;;;;;6306831;22;20027;-85
2023/05/27 01:45:52;;;;;;;11.30;3.40;;;;;;;;;;6281362;22;20018;-85
2023/05/27 01:48:19;;;;;;;10.10;3.08;;;;;;;;;;6281253;22;20019;-85
2023/05/27 01:50:45;;;;;;;10.63;3.05;;;;;;;;;;6281004;22;20019;-85
2023/05/27 01:53:11;;;;;;;9.13;3.33;;;;;;;;;;6281088;22;20451;-85
2023/05/27 01:55:38;;;;;;;7.90;3.20;;;;;;;;;;6307109;22;20012;-85
2023/05/27 01:58:04;;;;;;;11.10;3.83;;;;;;;;;;6281069;22;20011;-85
2023/05/27 02:00:30;;;;;;;9.77;3.17;;;;;;;;;;6306842;22;20433;-85
2023/05/27 02:02:56;;;;;;;9.85;3.50;;;;;;;;;;6281096;22;20084;-85
2023/05/27 02:05:22;;;;;;;11.15;3.55;;;;;;;;;;6281290;22;20015;-85
2023/05/27 02:07:48;;;;;;;8.65;3.08;;;;;;;;;;6307729;22;20022;-85
2023/05/27 02:10:14;;;;;;;10.15;3.42;;;;;;;;;;6280615;22;20019;-85
2023/05/27 02:12:40;;;;;;;10.00;3.83;;;;;;;;;;6281281;22;20054;-85
2023/05/27 02:15:07;;;;;;;11.25;3.55;;;;;;;;;;6306120;22;20019;-85
2023/05/27 02:17:33;;;;;;;11.85;3.67;;;;;;;;;;6306896;22;20064;-85
2023/05/27 02:19:59;;;;;;;12.35;3.10;;;;;;;;;;6306664;22;20387;-85
2023/05/27 02:22:25;;;;;;;14.23;3.83;;;;;;;;;;6280667;22;20015;-85
2023/05/27 02:24:51;;;;;;;10.77;3.33;;;;;;;;;;6307644;22;20011;-85
2023/05/27 02:27:17;;;;;;;9.02;3.63;;;;;;;;;;6306929;22;20019;-86
2023/05/27 02:29:43;;;;;;;13.75;3.60;;;;;;;;;;6280894;22;20315;-86
2023/05/27 02:32:10;;;;;;;9.77;3.72;;;;;;;;;;6281102;22;20019;-85
2023/05/27 02:34:36;;;;;;;11.38;4.20;;;;;;;;;;6280455;22;20019;-85
2023/05/27 02:37:03;;;;;;;11.02;3.70;;;;;;;;;;6280430;22;20019;-85
2023/05/27 02:39:29;;;;;;;11.27;4.25;;;;;;;;;;6306235;22;20042;-85
2023/05/27 02:41:55;;;;;;;8.85;4.07;;;;;;;;;;6280685;22;20437;-85
2023/05/27 02:44:21;;;;;;;11.38;3.67;;;;;;;;;;6306440;22;20437;-85
2023/05/27 02:46:47;;;;;;;12.07;3.45;;;;;;;;;;6280620;22;20491;-85
2023/05/27 02:49:14;;;;;;;13.80;4.55;;;;;;;;;;6281640;22;20341;-85
2023/05/27 02:51:40;;;;;;;14.95;4.70;;;;;;;;;;6282025;22;20013;-85
2023/05/27 02:54:06;;;;;;;11.80;4.32;;;;;;;;;;6280613;22;20023;-85
2023/05/27 02:56:32;;;;;;;13.93;3.80;;;;;;;;;;6280172;22;20076;-85
2023/05/27 02:58:58;;;;;;;13.63;4.40;;;;;;;;;;6306248;22;20019;-85
2023/05/27 03:01:25;;;;;;;12.73;4.13;;;;;;;;;;6281069;22;20046;-85
2023/05/27 03:03:51;;;;;;;12.77;3.42;;;;;;;;;;6306735;22;20015;-85
2023/05/27 03:06:17;;;;;;;16.05;4.80;;;;;;;;;;6280426;22;20341;-85
2023/05/27 03:08:43;;;;;;;13.00;3.75;;;;;;;;;;6280364;22;20026;-85
2023/05/27 03:11:10;;;;;;;12.65;4.13;;;;;;;;;;6306209;22;20527;-85
2023/05/27 03:13:36;;;;;;;12.93;4.07;;;;;;;;;;6280246;22;20022;-85
2023/05/27 03:16:02;;;;;;;11.73;3.85;;;;;;;;;;6306329;22;20019;-85
2023/05/27 03:18:28;;;;;;;8.75;3.33;;;;;;;;;;6280390;22;20449;-85
2023/05/27 03:20:54;;;;;;;16.40;4.30;;;;;;;;;;6280455;22;20023;-85
2023/05/27 03:23:20;;;;;;;9.27;3.63;;;;;;;;;;6280487;22;20019;-85
2023/05/27 03:25:46;;;;;;;11.57;4.07;;;;;;;;;;6280480;22;20339;-85
2023/05/27 03:28:13;;;;;;;14.35;4.85;;;;;;;;;;6280693;22;20375;-85
2023/05/27 03:30:40;;;;;;;16.27;4.20;;;;;;;;;;6281036;22;20069;-85
2023/05/27 03:33:06;;;;;;;12.90;4.22;;;;;;;;;;6281811;22;20070;-85
2023/05/27 03:35:32;;;;;;;14.70;4.22;;;;;;;;;;6281872;22;20026;-85
2023/05/27 03:37:58;;;;;;;10.85;3.83;;;;;;;;;;6282798;22;20080;-85
2023/05/27 03:40:25;;;;;;;12.02;4.05;;;;;;;;;;6307757;22;20015;-85
2023/05/27 03:42:51;;;;;;;14.30;4.35;;;;;;;;;;6308212;22;20021;-85
2023/05/27 03:45:17;;;;;;;12.63;4.57;;;;;;;;;;6308093;22;20055;-85
2023/05/27 03:47:43;;;;;;;14.65;4.18;;;;;;;;;;6308401;22;20069;-85
2023/05/27 03:50:09;;;;;;;12.35;4.47;;;;;;;;;;6309066;22;20011;-85
2023/05/27 03:52:36;;;;;;;14.60;4.75;;;;;;;;;;6282492;22;20334;-85
2023/05/27 03:55:02;;;;;;;12.05;4.43;;;;;;;;;;6282514;22;20102;-85
2023/05/27 03:57:28;;;;;;;15.45;4.70;;;;;;;;;;6282538;22;20015;-85
2023/05/27 03:59:54;;;;;;;13.63;4.30;;;;;;;;;;6282589;22;20021;-85
2023/05/27 04:02:20;;;;;;;16.95;5.05;;;;;;;;;;6307811;22;20073;-85
2023/05/27 04:04:47;;;;;;;12.68;4.05;;;;;;;;;;6307777;22;20401;-85
2023/05/27 04:07:13;;;;;;;11.77;3.70;;;;;;;;;;6307803;22;20019;-85
2023/05/27 04:09:39;;;;;;;12.93;4.30;;;;;;;;;;6283077;22;20053;-85
2023/05/27 04:12:06;;;;;;;12.60;4.57;;;;;;;;;;6307889;22;20094;-85
2023/05/27 04:14:32;;;;;;;15.52;4.28;;;;;;;;;;6281922;22;20026;-85
2023/05/27 04:16:58;;;;;;;13.95;4.22;;;;;;;;;;6307766;22;20055;-85
2023/05/27 04:19:24;;;;;;;12.00;3.90;;;;;;;;;;6282077;22;20092;-85
2023/05/27 04:21:50;;;;;;;13.07;3.88;;;;;;;;;;6307869;22;20431;-85
2023/05/27 04:24:16;;;;;;;8.98;3.03;;;;;;;;;;6281954;22;20160;-85
2023/05/27 04:26:42;;;;;;;12.23;4.35;;;;;;;;;;6281637;22;20023;-85
2023/05/27 04:29:11;;;;;;;13.68;4.45;;;;;;;;;;6281929;22;20016;-85
2023/05/27 04:31:37;;;;;;;13.20;4.05;;;;;;;;;;6281356;22;20065;-85
2023/05/27 04:34:03;;;;;;;14.02;3.83;;;;;;;;;;6307569;22;20026;-85
2023/05/27 04:36:32;;;;;;;12.07;3.72;;;;;;;;;;6281741;22;20022;-85
2023/05/27 04:39:01;;;;;;;9.98;3.90;;;;;;;;;;6308165;22;20279;-85
2023/05/27 04:41:28;;;;;;;13.65;4.72;;;;;;;;;;6308489;22;20015;-85
2023/05/27 04:43:56;;;;;;;13.77;3.88;;;;;;;;;;6281660;22;20016;-85
2023/05/27 04:46:23;;;;;;;10.43;4.13;;;;;;;;;;6281665;22;20019;-85
2023/05/27 04:48:50;;;;;;;11.52;3.92;;;;;;;;;;6281642;22;20349;-85
2023/05/27 04:51:17;;;;;;;12.57;4.65;;;;;;;;;;6281513;22;20051;-85
2023/05/27 04:53:43;;;;;;;11.55;4.05;;;;;;;;;;6281971;22;20310;-85
2023/05/27 04:56:10;;;;;;;14.27;4.75;;;;;;;;;;6281729;22;20019;-85
2023/05/27 04:58:39;;;;;;;15.35;4.13;;;;;;;;;;6281844;22;20019;-85
2023/05/27 05:01:05;;;;;;;15.13;3.75;;;;;;;;;;6281890;22;20114;-85
2023/05/27 05:03:39;;;;;;;8.90;3.50;;;;;;;;;;6281541;22;20019;-85
2023/05/27 05:06:05;;;;;;;13.63;3.92;;;;;;;;;;6282705;22;20517;-85
2023/05/27 05:08:32;;;;;;;10.38;3.42;;;;;;;;;;6281515;22;20019;-85
2023/05/27 05:10:58;;;;;;;14.90;4.15;;;;;;;;;;6282475;22;20096;-85
2023/05/27 05:13:28;;;;;;;11.23;3.40;;;;;;;;;;6282583;22;20015;-86
2023/05/27 05:15:54;;;;;;;11.27;3.80;;;;;;;;;;6280903;22;20068;-85
2023/05/27 05:18:20;;;;;;;18.08;4.63;;;;;;;;;;6281624;22;20022;-85
2023/05/27 05:20:46;;;;;;;16.95;3.65;;;;;;;;;;6281773;22;20023;-85
2023/05/27 05:23:12;;;;;;;13.95;3.65;;;;;;;;;;6307041;22;20022;-86
2023/05/27 05:25:39;;;;;;;17.35;3.55;;;;;;;;;;6307179;22;20337;-86
2023/05/27 05:28:05;;;;;;;12.50;4.47;;;;;;;;;;6308694;22;20012;-86
2023/05/27 05:30:32;;;;;;;14.75;4.50;;;;;;;;;;6306736;22;20071;-86
2023/05/27 05:32:58;;;;;;;10.73;3.70;;;;;;;;;;6281687;22;20428;-85
2023/05/27 05:35:24;;;;;;;13.35;4.28;;;;;;;;;;6281306;22;20075;-86
2023/05/27 05:37:50;;;;;;;13.57;3.65;;;;;;;;;;6281209;22;20011;-86
2023/05/27 05:40:17;;;;;;;16.33;4.22;;;;;;;;;;6281413;22;20022;-87
2023/05/27 05:42:43;;;;;;;16.30;4.00;;;;;;;;;;6307382;22;20061;-86
2023/05/27 05:45:09;;;;;;;12.00;3.83;;;;;;;;;;6282442;22;20011;-84
2023/05/27 05:47:35;;;;;;;14.43;4.35;;;;;;;;;;6281326;22;20097;-86
2023/05/27 05:50:01;;;;;;;15.27;4.07;;;;;;;;;;6307032;22;20019;-86
2023/05/27 05:52:27;;;;;;;14.55;4.07;;;;;;;;;;6281350;22;20034;-86
2023/05/27 05:54:53;;;;;;;12.20;3.67;;;;;;;;;;6306724;22;20388;-86
2023/05/27 05:57:19;;;;;;;14.30;3.72;;;;;;;;;;6308240;22;20421;-85
2023/05/27 05:59:45;;;;;;;19.45;4.43;;;;;;;;;;6281273;22;20121;-86
2023/05/27 06:02:11;;;;;;;16.00;3.83;;;;;;;;;;6281105;22;20278;-85
2023/05/27 06:04:37;;;;;;;17.17;4.40;;;;;;;;;;6307713;22;20325;-86
2023/05/27 06:07:03;;;;;;;13.98;3.58;;;;;;;;;;6281164;22;20019;-86
2023/05/27 06:09:35;;;;;;;16.80;4.10;;;;;;;;;;6281073;22;20022;-85
2023/05/27 06:12:01;;;;;;;11.60;3.65;;;;;;;;;;6307986;22;20022;-86
2023/05/27 06:14:27;;;;;;;12.80;4.15;;;;;;;;;;6280908;22;20034;-85
2023/05/27 06:16:54;;;;;;;18.98;4.35;;;;;;;;;;6280865;22;20098;-86
2023/05/27 06:19:20;;;;;;;15.02;3.75;;;;;;;;;;6306760;22;20022;-85
2023/05/27 06:21:46;;;;;;;15.27;3.38;;;;;;;;;;6281371;22;20015;-86
2023/05/27 06:24:12;;;;;;;14.70;3.08;;;;;;;;;;6281286;22;20019;-86
2023/05/27 06:26:38;;;;;;;20.73;4.15;;;;;;;;;;6281079;22;20011;-86
2023/05/27 06:29:04;;;;;;;17.92;3.90;;;;;;;;;;6281861;22;20073;-86
2023/05/27 06:31:30;;;;;;;14.73;3.60;;;;;;;;;;6280823;22;20019;-86
2023/05/27 06:33:56;;;;;;;16.40;4.07;;;;;;;;;;6280643;22;20401;-85
2023/05/27 06:36:22;;;;;;;13.57;4.40;;;;;;;;;;6280719;22;20107;-87
2023/05/27 06:38:48;;;;;;;16.35;3.63;;;;;;;;;;6281695;22;20026;-86
2023/05/27 06:41:14;;;;;;;13.23;3.45;;;;;;;;;;6280717;22;20019;-86
2023/05/27 06:43:42;;;;;;;15.68;3.60;;;;;;;;;;6280687;22;20026;-85
2023/05/27 06:46:08;;;;;;;13.20;3.70;;;;;;;;;;6306502;22;20015;-86
2023/05/27 06:48:34;;;;;;;17.85;4.30;;;;;;;;;;6281090;22;20311;-86
2023/05/27 06:51:00;;;;;;;11.05;2.92;;;;;;;;;;6307546;22;20015;-85
2023/05/27 06:53:26;;;;;;;14.57;3.53;;;;;;;;;;6281645;22;20076;-86
2023/05/27 06:55:52;;;;;;;16.25;3.83;;;;;;;;;;6281769;22;20015;-86
2023/05/27 06:58:18;;;;;;;16.13;3.60;;;;;;;;;;6280646;22;20453;-86
2023/05/27 07:00:50;;;;;;;14.18;4.63;;;;;;;;;;6281090;22;20011;-85
2023/05/27 07:03:16;;;;;;;11.65;3.67;;;;;;;;;;6280836;22;20019;-86
2023/05/27 07:05:43;;;;;;;12.57;3.42;;;;;;;;;;6280730;22;20068;-85
2023/05/27 07:08:09;;;;;;;15.82;3.83;;;;;;;;;;6282239;22;20429;-86
2023/05/27 07:10:35;;;;;;;11.55;3.42;;;;;;;;;;6282874;22;20062;-86
2023/05/27 07:13:01;;;;;;;16.85;3.42;;;;;;;;;;6283131;22;20104;-86
2023/05/27 07:15:27;;;;;;;18.77;4.30;;;;;;;;;;6282941;22;20022;-86
2023/05/27 07:17:53;;;;;;;16.77;3.55;;;;;;;;;;6282752;22;20015;-86
2023/05/27 07:20:19;;;;;;;15.13;4.30;;;;;;;;;;6308562;22;20049;-86
2023/05/27 07:22:45;;;;;;;14.93;3.92;;;;;;;;;;6282704;22;20015;-86
2023/05/27 07:25:11;;;;;;;19.00;4.85;;;;;;;;;;6308449;22;20073;-86
2023/05/27 07:27:37;;;;;;;13.82;4.07;;;;;;;;;;6308457;22;20019;-86
2023/05/27 07:30:04;;;;;;;15.95;4.10;;;;;;;;;;6308398;22;20022;-85
2023/05/27 07:32:30;;;;;;;13.93;3.78;;;;;;;;;;6283645;22;20069;-86
2023/05/27 07:34:56;;;;;;;13.63;4.13;;;;;;;;;;6282557;22;20449;-86
2023/05/27 07:37:23;;;;;;;13.07;4.25;;;;;;;;;;6282381;22;20015;-86
2023/05/27 07:39:51;;;;;;;17.27;4.00;;;;;;;;;;6283664;22;20313;-86
2023/05/27 07:42:17;;;;;;;13.43;4.72;;;;;;;;;;6283081;22;20487;-86
2023/05/27 07:44:43;;;;;;;16.48;3.72;;;;;;;;;;6282408;22;20076;-87
2023/05/27 07:47:09;;;;;;;15.77;4.13;;;;;;;;;;6283268;22;20394;-87
2023/05/27 07:49:36;;;;;;;17.75;3.92;;;;;;;;;;6282651;22;20019;-87
2023/05/27 07:52:02;;;;;;;13.95;4.22;;;;;;;;;;6283117;22;20098;-87
2023/05/27 07:54:28;;;;;;;14.27;4.28;;;;;;;;;;6282134;22;20046;-86
2023/05/27 07:56:57;;;;;;;10.35;3.67;;;;;;;;;;6282175;22;20016;-87
2023/05/27 07:59:23;;;;;;;11.45;3.10;;;;;;;;;;6282429;22;20015;-87
2023/05/27 08:01:49;;;;;;;13.27;3.10;;;;;;;;;;6282556;22;20015;-88
2023/05/27 08:04:15;;;;;;;13.57;3.95;;;;;;;;;;6281996;22;20217;-87
2023/05/27 08:06:42;;;;;;;13.65;4.28;;;;;;;;;;6282035;22;20015;-87
2023/05/27 08:09:08;;;;;;;11.35;3.47;;;;;;;;;;6308013;22;20015;-87
2023/05/27 08:11:34;;;;;;;16.15;4.40;;;;;;;;;;6307745;22;20019;-87
2023/05/27 08:14:00;;;;;;;13.00;3.90;;;;;;;;;;6281939;22;20313;-86
2023/05/27 08:16:26;;;;;;;12.35;3.80;;;;;;;;;;6282501;22;20023;-87
2023/05/27 08:18:53;;;;;;;15.55;3.28;;;;;;;;;;6282114;22;20091;-87
2023/05/27 08:21:19;;;;;;;10.00;2.67;;;;;;;;;;6281968;22;20023;-88
2023/05/27 08:23:45;;;;;;;9.57;2.95;;;;;;;;;;6282140;22;20011;-87
2023/05/27 08:26:11;;;;;;;12.02;3.38;;;;;;;;;;6282871;22;20019;-87
2023/05/27 08:28:37;;;;;;;10.85;3.17;;;;;;;;;;6281854;22;20053;-87
2023/05/27 08:31:04;;;;;;;13.45;3.50;;;;;;;;;;6282238;22;20392;-87
2023/05/27 08:33:30;;;;;;;11.55;3.80;;;;;;;;;;6282945;22;20097;-87
2023/05/27 08:35:57;;;;;;;11.45;3.85;;;;;;;;;;6282002;22;20344;-87
2023/05/27 08:38:23;;;;;;;11.30;3.80;;;;;;;;;;6282021;22;20047;-87
2023/05/27 08:40:49;;;;;;;12.38;3.78;;;;;;;;;;6281584;22;20019;-87
2023/05/27 08:43:16;;;;;;;10.73;3.42;;;;;;;;;;6307668;22;20011;-87
2023/05/27 08:45:45;;;;;;;16.63;3.67;;;;;;;;;;6307674;22;20437;-87
2023/05/27 08:48:11;;;;;;;14.63;4.07;;;;;;;;;;6281699;22;20437;-86
2023/05/27 08:50:37;;;;;;;12.88;3.05;;;;;;;;;;6282965;22;20073;-86
2023/05/27 08:53:03;;;;;;;16.70;4.57;;;;;;;;;;6307584;22;20434;-86
2023/05/27 08:55:31;;;;;;;10.63;3.83;;;;;;;;;;6307537;22;20338;-86
2023/05/27 08:57:58;;;;;;;11.85;3.70;;;;;;;;;;6282641;22;20011;-86
2023/05/27 09:00:25;;;;;;;16.30;4.40;;;;;;;;;;6281658;22;20019;-86
2023/05/27 09:02:51;;;;;;;13.95;4.65;;;;;;;;;;6281742;22;20019;-86
2023/05/27 09:05:17;;;;;;;12.00;3.55;;;;;;;;;;6307810;22;20084;-86
2023/05/27 09:07:44;;;;;;;11.93;4.00;;;;;;;;;;6281626;22;20012;-86
2023/05/27 09:10:11;;;;;;;14.73;4.35;;;;;;;;;;6281817;22;20023;-85
2023/05/27 09:12:37;;;;;;;11.93;3.45;;;;;;;;;;6307735;22;20022;-85
2023/05/27 09:15:12;;;;;;;10.60;3.50;;;;;;;;;;6306961;22;20050;-85
2023/05/27 09:17:42;;;;;;;12.45;3.72;;;;;;;;;;6281573;22;20094;-85
2023/05/27 09:20:10;;;;;;;14.88;3.67;;;;;;;;;;6281581;22;20094;-85
2023/05/27 09:22:36;;;;;;;13.77;3.90;;;;;;;;;;6282262;22;20022;-85
2023/05/27 09:25:02;;;;;;;13.90;3.80;;;;;;;;;;6308364;22;20019;-85
2023/05/27 09:27:29;;;;;;;13.35;3.40;;;;;;;;;;6282373;22;20019;-85
2023/05/27 09:29:55;;;;;;;12.05;3.50;;;;;;;;;;6281317;22;20057;-84
2023/05/27 09:32:26;;;;;;;13.60;4.28;;;;;;;;;;6281676;22;20404;-85
2023/05/27 09:34:53;;;;;;;10.00;3.67;;;;;;;;;;6282423;22;20065;-84
2023/05/27 09:37:20;;;;;;;10.27;3.13;;;;;;;;;;6307041;22;20011;-85
2023/05/27 09:39:48;;;;;;;15.45;4.47;;;;;;;;;;6281700;22;20034;-85
2023/05/27 09:42:14;;;;;;;11.85;3.08;;;;;;;;;;6281307;22;20342;-84
2023/05/27 09:44:40;;;;;;;12.55;3.60;;;;;;;;;;6281240;22;20020;-85
2023/05/27 09:47:11;;;;;;;15.05;4.00;;;;;;;;;;6281249;22;20101;-84
2023/05/27 09:49:38;;;;;;;15.27;4.43;;;;;;;;;;6281411;22;20477;-84
2023/05/27 09:52:07;;;;;;;13.40;3.70;;;;;;;;;;6306466;22;20015;-85
2023/05/27 09:54:33;;;;;;;11.35;4.07;;;;;;;;;;6281227;22;20342;-84
2023/05/27 09:56:59;;;;;;;11.20;3.92;;;;;;;;;;6281165;22;20027;-85
2023/05/27 09:59:26;;;;;;;9.85;2.90;;;;;;;;;;6282171;22;20015;-84
2023/05/27 10:01:52;;;;;;;10.73;3.28;;;;;;;;;;6281252;22;20399;-85
2023/05/27 10:04:18;;;;;;;10.10;3.33;;;;;;;;;;6281474;22;20096;-84
2023/05/27 10:06:48;;;;;;;7.43;3.33;;;;;;;;;;6281218;22;20027;-85
2023/05/27 10:09:16;;;;;;;13.95;3.60;;;;;;;;;;6281140;22;20392;-86
2023/05/27 10:11:44;;;;;;;11.65;3.65;;;;;;;;;;6307888;22;20051;-86
2023/05/27 10:14:11;;;;;;;7.80;3.55;;;;;;;;;;6307370;22;20076;-85
2023/05/27 10:16:38;;;;;;;12.18;3.40;;;;;;;;;;6306287;22;20053;-84
2023/05/27 10:19:09;;;;;;;10.52;3.42;;;;;;;;;;6280920;22;20015;-85
2023/05/27 10:21:42;;;;;;;10.25;3.85;;;;;;;;;;6307190;22;20503;-85
2023/05/27 10:24:10;;;;;;;8.85;3.75;;;;;;;;;;6280959;22;20023;-85
2023/05/27 10:26:37;;;;;;;11.35;3.33;;;;;;;;;;6306703;22;20023;-85
2023/05/27 10:29:07;;;;;;;9.90;3.10;;;;;;;;;;6306758;22;20020;-86
2023/05/27 10:31:34;;;;;;;10.68;3.63;;;;;;;;;;6281187;22;20441;-86
2023/05/27 10:34:00;;;;;;;13.25;3.78;;;;;;;;;;6281881;22;20160;-85
2023/05/27 10:36:31;;;;;;;9.93;3.38;;;;;;;;;;6280805;22;20441;-85
2023/05/27 10:39:17;;;;;;;8.55;2.47;;;;;;;;;;6307639;22;20325;-85
2023/05/27 10:41:49;;;;;;;11.55;3.67;;;;;;;;;;6305863;22;20065;-85
2023/05/27 10:44:26;;;;;;;7.90;3.53;;;;;;;;;;6280970;22;20026;-82
2023/05/27 10:46:59;;;;;;;9.63;3.35;;;;;;;;;;6307846;22;20097;-85
2023/05/27 10:49:27;;;;;;;10.65;3.70;;;;;;;;;;6281798;22;20038;-85
2023/05/27 10:51:54;;;;;;;11.95;3.58;;;;;;;;;;6306618;22;20144;-85
2023/05/27 10:54:24;;;;;;;9.75;3.45;;;;;;;;;;6307598;22;20019;-85
2023/05/27 10:56:53;;;;;;;8.40;3.15;;;;;;;;;;6306466;22;20012;-85
2023/05/27 10:59:23;;;;;;;8.23;2.90;;;;;;;;;;6306919;22;20018;-85
2023/05/27 11:01:53;;;;;;;8.32;3.38;;;;;;;;;;6280815;22;20054;-84
2023/05/27 11:04:19;;;;;;;10.45;3.10;;;;;;;;;;6280812;22;20026;-85
2023/05/27 11:06:59;;;;;;;10.48;3.10;;;;;;;;;;6281147;22;20060;-85
2023/05/27 11:09:26;;;;;;;8.95;3.05;;;;;;;;;;6281088;22;20064;-85
2023/05/27 11:11:54;;;;;;;9.52;3.10;;;;;;;;;;6306471;22;20464;-85
2023/05/27 11:14:20;;;;;;;8.48;3.38;;;;;;;;;;6280347;22;20433;-85
2023/05/27 11:16:51;;;;;;;12.50;4.03;;;;;;;;;;6281659;22;20030;-85
2023/05/27 11:19:17;;;;;;;11.10;3.42;;;;;;;;;;6281095;22;20019;-86
2023/05/27 11:21:47;;;;;;;9.18;3.97;;;;;;;;;;6280658;22;20094;-85
2023/05/27 11:24:16;;;;;;;14.40;4.10;;;;;;;;;;6306776;22;20015;-84
2023/05/27 11:26:46;;;;;;;8.95;3.28;;;;;;;;;;6281072;22;20072;-85
2023/05/27 11:29:12;;;;;;;7.85;3.28;;;;;;;;;;6280913;22;20464;-83
2023/05/27 11:31:41;;;;;;;11.85;3.50;;;;;;;;;;6306003;22;20022;-84
2023/05/27 11:34:23;;;;;;;9.48;3.50;;;;;;;;;;6307902;22;20378;-84
2023/05/27 11:36:50;;;;;;;10.10;3.47;;;;;;;;;;6307201;22;20023;-85
2023/05/27 11:39:16;;;;;;;11.07;3.05;;;;;;;;;;6307424;22;20101;-84
2023/05/27 11:41:55;;;;;;;11.32;3.20;;;;;;;;;;6281055;22;20081;-82
2023/05/27 11:44:22;;;;;;;8.25;3.03;;;;;;;;;;6307315;22;20011;-83
2023/05/27 11:46:49;;;;;;;9.45;3.63;;;;;;;;;;6280535;22;20052;-84
2023/05/27 11:49:16;;;;;;;7.85;2.97;;;;;;;;;;6306288;22;20108;-84
2023/05/27 11:51:45;;;;;;;10.07;3.00;;;;;;;;;;6305861;22;20094;-83
2023/05/27 11:54:22;;;;;;;9.60;2.60;;;;;;;;;;6307711;22;20018;-84
2023/05/27 11:56:49;;;;;;;10.63;3.08;;;;;;;;;;6308468;22;20042;-83
2023/05/27 11:59:15;;;;;;;8.95;2.80;;;;;;;;;;6308141;22;20068;-83
2023/05/27 12:01:42;;;;;;;9.65;3.40;;;;;;;;;;6282793;22;20015;-83
2023/05/27 12:04:08;;;;;;;8.27;2.63;;;;;;;;;;6308069;22;20015;-83
2023/05/27 12:06:36;;;;;;;8.52;3.22;;;;;;;;;;6307961;22;20011;-83
2023/05/27 12:09:06;;;;;;;7.88;2.60;;;;;;;;;;6282479;22;20022;-83
2023/05/27 12:11:33;;;;;;;8.48;3.00;;;;;;;;;;6282256;22;20019;-84
2023/05/27 12:13:59;;;;;;;10.07;2.92;;;;;;;;;;6308698;22;20022;-84
2023/05/27 12:16:25;;;;;;;7.03;2.60;;;;;;;;;;6308038;22;20023;-83
2023/05/27 12:18:51;;;;;;;8.40;3.03;;;;;;;;;;6281996;22;20011;-83
2023/05/27 12:21:17;;;;;;;7.40;2.75;;;;;;;;;;6282133;22;20019;-83
2023/05/27 12:23:43;;;;;;;10.02;3.47;;;;;;;;;;6281970;22;20418;-83
2023/05/27 12:26:10;;;;;;;12.93;3.13;;;;;;;;;;6282225;22;20449;-83
2023/05/27 12:28:36;;;;;;;5.95;2.60;;;;;;;;;;6307977;22;20018;-83
2023/05/27 12:31:02;;;;;;;6.47;3.03;;;;;;;;;;6282114;22;20116;-83
2023/05/27 12:33:28;;;;;;;5.88;2.33;;;;;;;;;;6283071;22;20094;-84
2023/05/27 12:35:54;;;;;;;5.50;2.22;;;;;;;;;;6281956;22;20019;-84
2023/05/27 12:38:20;;;;;;;7.00;3.17;;;;;;;;;;6307991;22;20015;-84
2023/05/27 12:40:48;;;;;;;8.15;3.03;;;;;;;;;;6281989;22;20027;-84
2023/05/27 12:43:14;;;;;;;6.53;2.58;;;;;;;;;;6282369;22;20020;-84
2023/05/27 12:45:40;;;;;;;5.38;2.50;;;;;;;;;;6307365;22;20015;-84
2023/05/27 12:48:07;;;;;;;8.02;3.22;;;;;;;;;;6307650;22;20023;-84
2023/05/27 12:50:33;;;;;;;9.65;2.75;;;;;;;;;;6307941;22;20015;-84
2023/05/27 12:52:59;;;;;;;8.18;2.67;;;;;;;;;;6281866;22;20015;-84
2023/05/27 12:55:26;;;;;;;8.13;2.85;;;;;;;;;;6307868;22;20062;-84
2023/05/27 12:57:53;;;;;;;8.25;2.28;;;;;;;;;;6307476;22;20019;-84
2023/05/27 13:00:19;;;;;;;6.95;2.55;;;;;;;;;;6281727;22;20023;-84
2023/05/27 13:02:49;;;;;;;7.97;2.70;;;;;;;;;;6281875;22;20056;-84
2023/05/27 13:05:16;;;;;;;7.53;2.47;;;;;;;;;;6307300;22;20022;-84
2023/05/27 13:07:53;;;;;;;7.20;2.90;;;;;;;;;;6307846;22;20334;-84
2023/05/27 13:10:21;;;;;;;8.00;2.53;;;;;;;;;;6307745;22;20015;-83
2023/05/27 13:12:47;;;;;;;10.57;3.33;;;;;;;;;;6308164;22;20019;-84
2023/05/27 13:15:16;;;;;;;7.50;2.88;;;;;;;;;;6307034;22;20011;-84
2023/05/27 13:17:42;;;;;;;6.85;2.67;;;;;;;;;;6308258;22;20023;-84
2023/05/27 13:20:09;;;;;;;6.47;2.13;;;;;;;;;;6281427;22;20072;-84
2023/05/27 13:22:35;;;;;;;7.55;2.80;;;;;;;;;;6281190;22;20020;-84
2023/05/27 13:25:01;;;;;;;7.47;2.60;;;;;;;;;;6306910;22;20016;-84
2023/05/27 13:27:27;;;;;;;6.72;2.90;;;;;;;;;;6307369;22;20345;-84
2023/05/27 13:29:53;;;;;;;5.88;1.90;;;;;;;;;;6281310;22;20022;-85
2023/05/27 13:32:20;;;;;;;6.03;2.40;;;;;;;;;;6281509;22;20055;-84
2023/05/27 13:34:46;;;;;;;8.02;2.70;;;;;;;;;;6282430;22;20499;-84
2023/05/27 13:37:12;;;;;;;9.25;2.80;;;;;;;;;;6281215;22;20334;-83
2023/05/27 13:39:42;;;;;;;6.45;2.53;;;;;;;;;;6281426;22;20029;-84
2023/05/27 13:42:09;;;;;;;7.03;2.47;;;;;;;;;;6283526;22;20016;-84
2023/05/27 13:44:35;;;;;;;7.57;2.55;;;;;;;;;;6282565;22;20368;-84
2023/05/27 13:47:01;;;;;;;5.00;2.53;;;;;;;;;;6281407;22;20019;-84
2023/05/27 13:49:27;;;;;;;6.43;2.67;;;;;;;;;;6307024;22;20011;-84
2023/05/27 13:51:53;;;;;;;6.93;2.70;;;;;;;;;;6282283;22;20095;-84
2023/05/27 13:54:20;;;;;;;7.95;3.22;;;;;;;;;;6281238;22;20011;-84
2023/05/27 13:56:46;;;;;;;6.45;2.45;;;;;;;;;;6306610;22;20015;-84
2023/05/27 13:59:12;;;;;;;9.73;3.05;;;;;;;;;;6281601;22;20452;-84
2023/05/27 14:01:40;;;;;;;7.93;2.90;;;;;;;;;;6306759;22;20015;-84
2023/05/27 14:04:06;;;;;;;5.88;2.67;;;;;;;;;;6307128;22;20060;-85
2023/05/27 14:06:32;;;;;;;5.55;2.28;;;;;;;;;;6306835;22;20073;-84
2023/05/27 14:08:58;;;;;;;6.10;2.65;;;;;;;;;;6307342;22;20015;-84
2023/05/27 14:11:25;;;;;;;5.20;2.10;;;;;;;;;;6306981;22;20015;-84
2023/05/27 14:13:52;;;;;;;6.65;2.50;;;;;;;;;;6307149;22;20015;-84
2023/05/27 14:16:18;;;;;;;5.03;2.03;;;;;;;;;;6280954;22;20019;-85
2023/05/27 14:18:44;;;;;;;4.75;1.95;;;;;;;;;;6306645;22;20469;-84
2023/05/27 14:21:10;;;;;;;6.18;2.28;;;;;;;;;;6281274;22;20016;-84
2023/05/27 14:23:36;;;;;;;8.70;2.65;;;;;;;;;;6282094;22;20030;-85
2023/05/27 14:26:02;;;;;;;6.43;2.45;;;;;;;;;;6282032;22;20322;-85
2023/05/27 14:28:29;;;;;;;5.40;2.00;;;;;;;;;;6280848;22;20015;-85
2023/05/27 14:30:55;;;;;;;7.40;2.45;;;;;;;;;;6280893;22;20085;-85
2023/05/27 14:33:21;;;;;;;6.03;2.30;;;;;;;;;;6307682;22;20017;-85